Aviation Digital Data Service (ADDS)

Output produced by METARs form (2001 UTC 22 November 2017)
found at http://aviationweather.gov/adds/metars/
 
KEKN 221728Z 2218/2318 31009G16KT P6SM OVC035 
     FM230000 31004KT P6SM SCT015